Time;durP1;ratioP1;P1;durP2;ratioP2;P2;SDS_P1;SDS_P2;PMS_P1;PMS_P2;Temp;Humidity;BMP_temperature;BMP_pressure;BME280_temperature;BME280_humidity;BME280_pressure;Samples;Min_cycle;Max_cycle;Signal;HPM_P1;HPM_P2
2024/01/09 00:01:30;;;;;;;15.15;8.18;;;;;;;2.22;100.00;99747.41;5091287;28;20016;-24
2024/01/09 00:03:56;;;;;;;14.45;8.73;;;;;;;2.38;100.00;99736.25;5091508;28;20022;-24
2024/01/09 00:06:22;;;;;;;14.25;8.90;;;;;;;2.30;100.00;99754.56;5091938;28;20020;-24
2024/01/09 00:08:47;;;;;;;15.80;8.25;;;;;;;2.30;100.00;99754.56;5093545;28;20512;-24
2024/01/09 00:11:13;;;;;;;15.38;9.27;;;;;;;2.17;100.00;99740.97;5094765;28;20392;-24
2024/01/09 00:13:38;;;;;;;14.80;8.27;;;;;;;2.15;100.00;99746.34;5091900;28;20020;-23
2024/01/09 00:16:04;;;;;;;13.02;7.60;;;;;;;2.19;100.00;99739.84;5091991;28;20050;-25
2024/01/09 00:18:29;;;;;;;14.25;8.38;;;;;;;2.03;100.00;99752.81;5092037;28;20069;-24
2024/01/09 00:20:55;;;;;;;13.65;8.40;;;;;;;2.01;100.00;99758.19;5091640;28;20356;-24
2024/01/09 00:23:20;;;;;;;15.95;9.32;;;;;;;2.27;100.00;99752.25;5091817;28;20085;-25
2024/01/09 00:25:45;;;;;;;14.68;9.15;;;;;;;2.20;100.00;99741.50;5092286;28;20123;-38
2024/01/09 00:28:11;;;;;;;13.77;8.73;;;;;;;2.10;100.00;99765.19;5090243;28;20085;-39
2024/01/09 00:30:36;;;;;;;13.88;8.00;;;;;;;1.82;100.00;99767.00;5093570;28;20063;-39
2024/01/09 00:33:02;;;;;;;13.05;7.55;;;;;;;1.66;100.00;99777.34;5111849;28;20089;-38
2024/01/09 00:35:27;;;;;;;17.02;9.88;;;;;;;1.83;100.00;99773.06;5111844;28;20165;-37
2024/01/09 00:37:53;;;;;;;15.45;9.25;;;;;;;1.76;100.00;99784.16;5111751;28;20053;-39
2024/01/09 00:40:18;;;;;;;16.65;10.07;;;;;;;1.88;100.00;99774.28;5112000;28;20031;-38
2024/01/09 00:42:44;;;;;;;15.50;9.35;;;;;;;1.76;100.00;99778.91;5111203;28;20159;-38
2024/01/09 00:45:10;;;;;;;12.55;6.07;;;;;;;1.48;100.00;99783.31;5111951;28;20084;-25
2024/01/09 00:47:35;;;;;;;16.42;8.95;;;;;;;1.54;100.00;99777.50;5112012;28;20388;-25
2024/01/09 00:50:01;;;;;;;15.85;8.40;;;;;;;1.48;100.00;99775.44;5112018;28;20035;-24
2024/01/09 00:52:26;;;;;;;15.40;8.40;;;;;;;1.60;100.00;99789.22;5111629;28;20498;-25
2024/01/09 00:54:51;;;;;;;12.60;7.47;;;;;;;1.26;100.00;99789.75;5111628;28;20039;-25
2024/01/09 00:57:17;;;;;;;17.70;9.43;;;;;;;1.42;100.00;99776.03;5111456;28;20027;-25
2024/01/09 00:59:42;;;;;;;16.00;8.07;;;;;;;1.35;100.00;99795.91;5111907;28;20032;-25
2024/01/09 01:02:08;;;;;;;15.95;8.68;;;;;;;1.27;100.00;99788.75;5111432;28;20941;-25
2024/01/09 01:04:37;;;;;;;12.65;7.72;;;;;;;1.29;100.00;99796.50;5111550;28;20114;-25
2024/01/09 01:07:02;;;;;;;16.20;9.35;;;;;;;1.39;100.00;99805.19;5111730;28;20031;-25
2024/01/09 01:09:28;;;;;;;15.38;8.88;;;;;;;1.38;100.00;99802.69;5111562;28;20052;-25
2024/01/09 01:11:53;;;;;;;13.75;8.15;;;;;;;1.43;100.00;99811.78;5111721;28;20027;-25
2024/01/09 01:14:18;;;;;;;18.35;9.98;;;;;;;1.52;100.00;99804.84;5111362;28;20024;-25
2024/01/09 01:16:44;;;;;;;17.40;10.07;;;;;;;1.75;100.00;99811.41;5111197;28;20101;-25
2024/01/09 01:19:09;;;;;;;16.92;9.60;;;;;;;1.18;100.00;99773.88;5111313;28;20371;-25
2024/01/09 01:21:34;;;;;;;16.55;9.10;;;;;;;1.47;100.00;99813.16;5115037;28;20047;-25
2024/01/09 01:24:00;;;;;;;19.00;9.75;;;;;;;1.59;100.00;99824.28;5115249;28;20066;-25
2024/01/09 01:26:25;;;;;;;16.15;8.57;;;;;;;1.29;100.00;99820.09;5115398;28;20085;-25
2024/01/09 01:28:51;;;;;;;15.52;9.15;;;;;;;1.28;100.00;99819.28;5115199;28;20503;-25
2024/01/09 01:31:16;;;;;;;20.90;10.30;;;;;;;1.25;100.00;99831.84;5115164;28;20053;-25
2024/01/09 01:33:41;;;;;;;17.27;8.77;;;;;;;1.16;100.00;99851.84;5115256;28;20027;-25
2024/01/09 01:36:15;;;;;;;19.40;8.70;;;;;;;1.00;100.00;99836.69;5115312;28;20076;-39
2024/01/09 01:38:44;;;;;;;15.50;8.93;;;;;;;0.94;100.00;99852.97;5115072;27;20019;-40
2024/01/09 01:41:10;;;;;;;17.33;9.88;;;;;;;0.93;100.00;99853.94;5114651;28;20020;-38
2024/01/09 01:43:35;;;;;;;16.67;8.05;;;;;;;0.78;100.00;99845.66;5115017;27;20080;-38
2024/01/09 01:46:04;;;;;;;17.35;8.77;;;;;;;0.83;100.00;99846.06;5115033;28;20020;-38
2024/01/09 01:48:31;;;;;;;16.40;8.88;;;;;;;0.91;100.00;99859.31;5114768;28;20047;-37
2024/01/09 01:50:57;;;;;;;15.68;8.40;;;;;;;0.70;100.00;99851.59;5114552;28;20028;-39
2024/01/09 01:53:23;;;;;;;15.43;7.95;;;;;;;0.71;100.00;99861.13;5114900;28;20026;-38
2024/01/09 01:55:49;;;;;;;18.90;9.23;;;;;;;0.53;100.00;99837.41;5114933;28;20023;-39
2024/01/09 01:58:14;;;;;;;15.80;8.48;;;;;;;0.44;100.00;99842.59;5113755;28;20111;-39
2024/01/09 02:00:41;;;;;;;16.00;8.60;;;;;;;0.38;100.00;99850.06;5114315;28;20088;-39
2024/01/09 02:03:07;;;;;;;14.18;7.53;;;;;;;0.18;100.00;99833.47;5114075;28;20027;-36
2024/01/09 02:05:33;;;;;;;16.20;8.85;;;;;;;0.23;100.00;99829.59;5114244;28;20020;-39
2024/01/09 02:07:59;;;;;;;17.67;8.48;;;;;;;0.14;100.00;99816.38;5113984;28;20114;-37
2024/01/09 02:10:24;;;;;;;16.17;9.05;;;;;;;0.52;99.32;99827.06;5114076;28;20064;-38
2024/01/09 02:12:50;;;;;;;14.73;7.95;;;;;;;0.09;100.00;99839.50;5113988;28;20147;-38
2024/01/09 02:15:16;;;;;;;17.27;9.02;;;;;;;0.03;100.00;99824.34;5113900;28;20051;-39
2024/01/09 02:17:42;;;;;;;18.83;8.52;;;;;;;0.00;100.00;99824.63;5114302;28;20028;-38
2024/01/09 02:20:09;;;;;;;17.88;8.80;;;;;;;-0.09;100.00;99846.34;5114485;28;20055;-37
2024/01/09 02:22:35;;;;;;;17.17;8.02;;;;;;;0.14;100.00;99844.34;5122476;27;20027;-38
2024/01/09 02:25:00;;;;;;;18.15;8.70;;;;;;;0.13;100.00;99867.09;5134596;27;20379;-40
2024/01/09 02:27:54;;;;;;;16.45;7.72;;;;;;;0.06;100.00;99854.63;5134562;27;20054;-39
2024/01/09 02:30:19;;;;;;;16.98;8.93;;;;;;;0.25;99.29;99849.47;5134680;27;20042;-38
2024/01/09 02:32:46;;;;;;;19.38;8.65;;;;;;;0.10;98.86;99859.50;5116120;27;20127;-39
2024/01/09 02:35:12;;;;;;;18.30;9.40;;;;;;;0.26;99.60;99848.50;5113888;28;20102;-44
2024/01/09 02:37:37;;;;;;;17.25;8.85;;;;;;;0.27;100.00;99852.78;5113748;28;20102;-39
2024/01/09 02:40:03;;;;;;;17.13;9.20;;;;;;;0.71;100.00;99844.56;5116517;27;20054;-39
2024/01/09 02:42:29;;;;;;;20.65;10.15;;;;;;;1.00;97.79;99841.13;5119555;27;20458;-39
2024/01/09 02:44:55;;;;;;;20.15;10.98;;;;;;;1.23;97.59;99839.00;5113552;28;20489;-39
2024/01/09 02:47:24;;;;;;;19.02;9.38;;;;;;;0.94;98.15;99824.97;5113559;28;20422;-40
2024/01/09 02:49:49;;;;;;;11.85;7.18;;;;;;;0.31;99.71;99821.94;5113991;28;20088;-37
2024/01/09 02:52:16;;;;;;;16.88;9.65;;;;;;;0.16;100.00;99813.63;5113448;28;20486;-38
2024/01/09 02:54:42;;;;;;;16.27;9.38;;;;;;;0.14;100.00;99839.13;5113735;28;20027;-36
2024/01/09 02:57:08;;;;;;;17.65;8.98;;;;;;;0.13;100.00;99861.00;5113688;28;20019;-37
2024/01/09 02:59:34;;;;;;;17.33;10.00;;;;;;;0.15;100.00;99867.78;5113025;28;20490;-38
2024/01/09 03:01:59;;;;;;;18.00;9.30;;;;;;;0.42;98.17;99870.72;5097642;28;20020;-40
2024/01/09 03:04:24;;;;;;;18.85;9.85;;;;;;;-0.05;99.34;99872.09;5092645;28;20101;-39
2024/01/09 03:06:50;;;;;;;18.20;8.90;;;;;;;-0.05;99.48;99881.75;5092758;28;20103;-37
2024/01/09 03:09:16;;;;;;;19.00;9.38;;;;;;;0.32;99.92;99897.69;5092628;28;20507;-39
2024/01/09 03:11:42;;;;;;;17.30;8.82;;;;;;;0.27;98.75;99896.47;5092551;28;20032;-38
2024/01/09 03:14:08;;;;;;;16.15;8.13;;;;;;;-0.12;96.88;99878.81;5092627;28;20471;-37
2024/01/09 03:16:33;;;;;;;20.42;9.63;;;;;;;-0.17;98.29;99896.72;5109922;28;20027;-39
2024/01/09 03:18:59;;;;;;;20.60;10.10;;;;;;;0.08;98.56;99894.59;5094530;28;20031;-39
2024/01/09 03:21:24;;;;;;;17.15;8.48;;;;;;;0.20;98.25;99904.00;5092735;28;20024;-39
2024/01/09 03:23:49;;;;;;;21.05;10.35;;;;;;;0.66;96.19;99905.22;5092641;28;20104;-39
2024/01/09 03:26:15;;;;;;;18.40;9.63;;;;;;;0.63;96.75;99908.13;5092623;28;20468;-38
2024/01/09 03:28:40;;;;;;;17.85;8.50;;;;;;;0.16;91.75;99905.25;5096101;28;20015;-38
2024/01/09 03:31:05;;;;;;;17.67;8.40;;;;;;;-0.16;95.32;99900.16;5111860;28;20023;-38
2024/01/09 03:33:31;;;;;;;17.40;8.90;;;;;;;-0.27;97.31;99909.72;5112069;28;20390;-37
2024/01/09 03:35:57;;;;;;;19.92;10.57;;;;;;;-0.04;98.60;99927.88;5111918;28;20051;-39
2024/01/09 03:38:22;;;;;;;19.58;8.77;;;;;;;-0.45;99.38;99911.28;5111813;28;20050;-38
2024/01/09 03:40:48;;;;;;;20.40;9.50;;;;;;;-0.53;96.48;99911.06;5112102;28;20059;-36
2024/01/09 03:43:13;;;;;;;20.52;9.10;;;;;;;-0.76;95.78;99920.81;5111373;28;20049;-35
2024/01/09 03:45:39;;;;;;;21.25;9.48;;;;;;;-0.83;96.44;99931.78;5112523;28;20027;-38
2024/01/09 03:48:05;;;;;;;18.25;9.68;;;;;;;-0.69;98.79;99963.81;5112460;28;20543;-39
2024/01/09 03:50:30;;;;;;;20.30;9.27;;;;;;;-0.54;98.55;99970.38;5112471;28;20103;-36
2024/01/09 03:52:56;;;;;;;20.35;10.27;;;;;;;-0.46;96.95;99974.97;5112259;28;20020;-26
2024/01/09 03:55:21;;;;;;;16.95;8.73;;;;;;;-0.86;97.55;99992.13;5114196;28;20016;-39
2024/01/09 03:57:47;;;;;;;19.92;9.32;;;;;;;-0.90;97.80;99977.66;5113040;28;20069;-39
2024/01/09 04:00:13;;;;;;;14.13;6.20;;;;;;;-0.83;96.86;99968.38;5112356;28;20027;-38
2024/01/09 04:02:38;;;;;;;18.48;9.07;;;;;;;-0.83;96.06;99978.00;5108268;27;20024;-25
2024/01/09 04:05:05;;;;;;;21.85;10.15;;;;;;;-0.83;95.84;99968.38;5092589;28;20103;-26
2024/01/09 04:07:30;;;;;;;17.52;9.60;;;;;;;-0.68;95.60;99975.94;5092321;28;20099;-26
2024/01/09 04:09:56;;;;;;;18.65;8.30;;;;;;;0.25;100.00;99977.75;5101365;28;20130;-25
2024/01/09 04:12:21;;;;;;;21.60;11.43;;;;;;;-0.42;95.96;99981.59;5100517;28;20031;-25
2024/01/09 04:14:47;;;;;;;24.40;10.43;;;;;;;-0.77;93.63;99977.50;5099517;28;20072;-26
2024/01/09 04:17:12;;;;;;;20.48;8.65;;;;;;;-1.00;94.62;99988.03;5111774;28;20115;-39
2024/01/09 04:19:38;;;;;;;23.52;10.73;;;;;;;-0.78;95.14;99999.38;5111906;28;20452;-39
2024/01/09 04:22:04;;;;;;;21.58;10.48;;;;;;;-0.86;95.95;100002.56;5112211;28;20103;-36
2024/01/09 04:24:30;;;;;;;24.05;11.25;;;;;;;-0.46;95.41;99988.91;5111679;28;20056;-39
2024/01/09 04:26:55;;;;;;;27.17;13.40;;;;;;;-0.58;95.09;99995.13;5111804;28;20020;-37
2024/01/09 04:29:21;;;;;;;23.83;10.40;;;;;;;-0.54;95.07;99990.47;5110825;28;20066;-37
2024/01/09 04:31:46;;;;;;;23.25;10.95;;;;;;;-0.53;95.10;99994.72;5110342;28;20403;-40
2024/01/09 04:34:11;;;;;;;18.85;9.18;;;;;;;-0.58;94.10;100007.38;5110492;28;20012;-39
2024/01/09 04:36:37;;;;;;;22.95;10.05;;;;;;;-0.57;95.16;100029.94;5110283;28;20137;-36
2024/01/09 04:39:02;;;;;;;24.75;11.55;;;;;;;-0.61;95.87;100008.44;5110545;28;20062;-39
2024/01/09 04:41:28;;;;;;;26.77;11.85;;;;;;;-0.75;95.83;100008.75;5110383;28;20380;-39
2024/01/09 04:43:53;;;;;;;22.77;10.90;;;;;;;-1.11;96.39;100016.78;5094528;28;20095;-39
2024/01/09 04:46:18;;;;;;;21.17;10.10;;;;;;;-1.28;96.65;100070.34;5091143;28;20031;-38
2024/01/09 04:48:44;;;;;;;17.13;8.02;;;;;;;-1.70;96.18;100037.94;5090931;28;20062;-37
2024/01/09 04:51:09;;;;;;;17.77;8.00;;;;;;;-1.73;97.63;100041.63;5100848;28;20091;-37
2024/01/09 04:53:35;;;;;;;20.60;9.77;;;;;;;-1.63;99.00;100032.13;5132030;27;20497;-36
2024/01/09 04:56:00;;;;;;;18.70;9.55;;;;;;;-1.38;97.91;100051.94;5127303;27;20023;-35
2024/01/09 04:58:25;;;;;;;23.20;11.50;;;;;;;-1.27;99.12;100042.47;5118941;27;20042;-37
2024/01/09 05:00:51;;;;;;;25.98;12.00;;;;;;;-1.45;97.26;100048.13;5116306;27;20044;-39
2024/01/09 05:03:16;;;;;;;22.08;9.85;;;;;;;-1.30;96.38;100045.28;5117040;27;20030;-26
2024/01/09 05:05:42;;;;;;;22.20;10.52;;;;;;;-1.46;96.84;100053.50;5114182;28;20085;-26
2024/01/09 05:08:07;;;;;;;23.35;11.27;;;;;;;-1.10;97.20;100072.50;5115817;28;20023;-25
2024/01/09 05:10:32;;;;;;;21.83;10.60;;;;;;;-1.12;96.37;100082.19;5107970;28;20411;-25
2024/01/09 05:12:58;;;;;;;17.10;8.75;;;;;;;-1.53;96.33;100074.00;5095303;28;20051;-25
2024/01/09 05:15:23;;;;;;;21.48;10.18;;;;;;;-1.35;97.47;100097.03;5095119;28;20160;-26
2024/01/09 05:17:49;;;;;;;21.75;9.02;;;;;;;-1.58;96.22;100094.41;5095712;28;20058;-25
2024/01/09 05:20:14;;;;;;;20.70;9.82;;;;;;;-1.62;97.58;100101.66;5095655;28;20023;-25
2024/01/09 05:22:40;;;;;;;21.70;9.40;;;;;;;-1.75;96.81;100107.91;5095436;28;20019;-25
2024/01/09 05:25:06;;;;;;;24.77;12.00;;;;;;;-1.52;97.09;100107.00;5095224;28;20061;-26
2024/01/09 05:27:32;;;;;;;17.50;7.10;;;;;;;-1.87;96.38;100102.66;5095236;28;20027;-25
2024/01/09 05:29:58;;;;;;;19.80;10.00;;;;;;;-1.93;97.46;100113.56;5094660;28;20024;-26
2024/01/09 05:32:24;;;;;;;22.92;10.35;;;;;;;-1.98;97.50;100074.78;5094978;28;20024;-26
2024/01/09 05:34:49;;;;;;;23.73;10.35;;;;;;;-1.91;97.67;100093.41;5095111;28;20077;-25
2024/01/09 05:37:15;;;;;;;19.65;9.88;;;;;;;-1.80;97.86;100088.22;5095250;28;20020;-26
2024/01/09 05:39:43;;;;;;;22.02;10.30;;;;;;;-1.55;98.93;100090.75;5094945;28;20621;-26
2024/01/09 05:42:08;;;;;;;24.13;10.45;;;;;;;-1.50;98.13;100091.25;5094706;28;20028;-26
2024/01/09 05:44:34;;;;;;;23.55;10.20;;;;;;;-1.46;97.90;100109.16;5095285;28;20075;-26
2024/01/09 05:47:00;;;;;;;23.33;10.85;;;;;;;-1.14;97.19;100105.00;5094271;28;20024;-26
2024/01/09 05:49:25;;;;;;;24.33;11.52;;;;;;;-1.03;94.87;100103.22;5098228;28;20012;-26
2024/01/09 05:51:50;;;;;;;25.20;12.02;;;;;;;-0.65;94.76;100108.97;5114969;28;20022;-27
2024/01/09 05:54:16;;;;;;;15.57;8.00;;;;;;;-0.83;93.52;100114.72;5114709;28;20020;-26
2024/01/09 05:56:41;;;;;;;21.60;9.75;;;;;;;-0.82;92.27;100128.59;5114830;28;20432;-26
2024/01/09 05:59:06;;;;;;;24.70;11.45;;;;;;;-1.16;93.92;100133.00;5113899;28;20022;-26
2024/01/09 06:01:32;;;;;;;24.20;11.18;;;;;;;-1.38;94.41;100132.06;5114103;28;20515;-27
2024/01/09 06:03:57;;;;;;;25.05;10.50;;;;;;;-1.53;95.10;100120.19;5113743;28;20111;-27
2024/01/09 06:06:22;;;;;;;22.45;10.88;;;;;;;-1.70;95.03;100147.53;5113479;28;20028;-27
2024/01/09 06:08:48;;;;;;;23.65;11.35;;;;;;;-1.12;94.67;100137.03;5113932;28;20055;-27
2024/01/09 06:11:14;;;;;;;22.10;9.13;;;;;;;-1.32;95.68;100144.66;5113603;28;20077;-26
2024/01/09 06:13:40;;;;;;;21.90;11.68;;;;;;;-1.44;94.85;100156.84;5114071;27;20483;-26
2024/01/09 06:16:05;;;;;;;24.60;11.43;;;;;;;-1.25;93.38;100155.47;5114143;28;20145;-27
2024/01/09 06:18:31;;;;;;;23.77;10.38;;;;;;;-1.39;93.73;100165.19;5114089;28;20019;-25
2024/01/09 06:20:56;;;;;;;26.73;11.85;;;;;;;-1.07;93.56;100174.09;5114200;28;20032;-26
2024/01/09 06:23:21;;;;;;;27.77;11.82;;;;;;;-0.93;91.67;100175.66;5114676;28;20023;-27
2024/01/09 06:25:47;;;;;;;23.50;10.88;;;;;;;-1.06;91.47;100176.59;5114375;28;20024;-26
2024/01/09 06:28:12;;;;;;;20.17;10.23;;;;;;;-1.24;92.00;100172.78;5113980;28;20467;-26
2024/01/09 06:30:37;;;;;;;27.05;12.18;;;;;;;-0.94;91.18;100174.81;5113889;28;20429;-28
2024/01/09 06:33:03;;;;;;;25.20;12.13;;;;;;;-1.07;92.35;100174.94;5114360;28;20024;-26
2024/01/09 06:35:28;;;;;;;23.75;10.43;;;;;;;-1.19;91.12;100176.72;5113940;28;20031;-26
2024/01/09 06:37:53;;;;;;;21.73;10.60;;;;;;;-1.13;90.99;100180.63;5114465;28;20039;-26
2024/01/09 06:40:20;;;;;;;17.92;9.10;;;;;;;-1.43;90.69;100194.22;5114092;28;20114;-27
2024/01/09 06:42:48;;;;;;;23.77;11.18;;;;;;;-1.39;91.74;100193.91;5114730;28;20433;-28
2024/01/09 06:45:16;;;;;;;24.55;11.25;;;;;;;-0.93;90.68;100192.19;5114551;28;20448;-26
2024/01/09 06:47:42;;;;;;;19.00;9.07;;;;;;;-1.09;88.20;100189.91;5114578;28;20102;-27
2024/01/09 06:50:08;;;;;;;18.58;9.35;;;;;;;-1.24;89.79;100194.53;5119586;27;20494;-27
2024/01/09 06:52:33;;;;;;;23.95;9.85;;;;;;;-0.89;89.27;100205.84;5113972;28;20114;-29
2024/01/09 06:54:58;;;;;;;21.00;9.82;;;;;;;-0.79;88.39;100212.84;5113995;28;20024;-26
2024/01/09 06:57:24;;;;;;;22.25;10.25;;;;;;;-0.93;89.70;100218.31;5113657;28;20035;-26
2024/01/09 06:59:50;;;;;;;19.50;9.80;;;;;;;-0.96;89.30;100220.31;5112826;28;20038;-26
2024/01/09 07:02:15;;;;;;;21.23;10.43;;;;;;;-1.06;89.96;100228.03;5113960;28;20027;-27
2024/01/09 07:04:41;;;;;;;21.15;10.18;;;;;;;-0.79;89.57;100240.75;5113741;28;20480;-29
2024/01/09 07:07:06;;;;;;;18.63;10.25;;;;;;;-0.81;88.94;100237.44;5113530;28;20054;-27
2024/01/09 07:09:32;;;;;;;23.75;10.57;;;;;;;-0.54;87.87;100234.44;5112928;28;20122;-25
2024/01/09 07:11:57;;;;;;;24.08;9.85;;;;;;;-0.96;88.11;100239.44;5112382;28;20152;-28
2024/01/09 07:14:23;;;;;;;23.98;12.07;;;;;;;-0.89;87.84;100229.38;5112345;28;20027;-26
2024/01/09 07:16:48;;;;;;;23.33;10.40;;;;;;;-1.07;88.42;100253.31;5111918;28;20053;-26
2024/01/09 07:19:13;;;;;;;22.73;11.05;;;;;;;-0.36;87.80;100234.81;5111431;28;20107;-26
2024/01/09 07:21:39;;;;;;;24.75;10.98;;;;;;;-0.74;87.67;100256.06;5112491;28;20658;-26
2024/01/09 07:24:04;;;;;;;21.98;10.45;;;;;;;-0.86;87.12;100250.84;5111700;28;20015;-25
2024/01/09 07:26:30;;;;;;;21.10;10.30;;;;;;;-1.12;88.05;100263.28;5112508;28;20022;-25
2024/01/09 07:28:55;;;;;;;19.17;9.05;;;;;;;-0.89;87.58;100251.09;5112818;28;20019;-26
2024/01/09 07:31:20;;;;;;;18.98;10.05;;;;;;;-0.89;87.47;100251.09;5112596;28;20020;-26
2024/01/09 07:33:46;;;;;;;17.45;8.05;;;;;;;-0.72;85.52;100275.09;5112404;28;20023;-27
2024/01/09 07:36:11;;;;;;;14.20;7.28;;;;;;;-0.94;83.95;100276.72;5112460;28;20029;-27
2024/01/09 07:38:36;;;;;;;15.48;8.43;;;;;;;-1.10;83.97;100281.47;5112762;28;20015;-27
2024/01/09 07:41:02;;;;;;;15.48;8.07;;;;;;;-1.12;84.25;100285.94;5112647;28;20035;-27
2024/01/09 07:43:28;;;;;;;16.58;8.40;;;;;;;-1.18;84.02;100282.03;5112376;28;20024;-28
2024/01/09 07:45:54;;;;;;;16.20;7.72;;;;;;;-0.98;83.60;100293.59;5112426;28;20020;-27
2024/01/09 07:48:19;;;;;;;16.63;9.00;;;;;;;-1.08;83.38;100297.84;5112278;28;20030;-26
2024/01/09 07:50:45;;;;;;;17.58;7.88;;;;;;;-1.27;84.57;100293.16;5112610;28;20112;-27
2024/01/09 07:53:10;;;;;;;19.73;9.30;;;;;;;-1.24;84.34;100309.44;5112153;28;20016;-27
2024/01/09 07:55:35;;;;;;;13.68;7.30;;;;;;;-1.45;84.79;100314.44;5112553;28;20108;-27
2024/01/09 07:58:01;;;;;;;13.07;5.20;;;;;;;-1.50;84.76;100323.59;5112399;28;20019;-27
2024/01/09 08:00:28;;;;;;;17.23;8.82;;;;;;;-1.55;85.72;100321.28;5112841;28;20016;-25
2024/01/09 08:02:53;;;;;;;19.45;8.98;;;;;;;-1.34;85.29;100312.84;5112329;28;20099;-27
2024/01/09 08:05:19;;;;;;;15.55;7.18;;;;;;;-1.36;84.09;100327.78;5112580;28;20478;-27
2024/01/09 08:07:44;;;;;;;18.90;9.32;;;;;;;-1.22;84.43;100323.22;5112316;28;20073;-25
2024/01/09 08:10:09;;;;;;;19.38;9.18;;;;;;;-1.38;84.42;100317.44;5112214;28;20075;-26
2024/01/09 08:12:35;;;;;;;17.80;8.73;;;;;;;-1.13;84.46;100326.09;5112397;28;20422;-26
2024/01/09 08:15:01;;;;;;;17.63;7.43;;;;;;;-1.09;83.77;100324.91;5112047;28;20140;-27
2024/01/09 08:17:27;;;;;;;17.33;8.45;;;;;;;-0.93;82.54;100327.19;5111711;28;20473;-27
2024/01/09 08:19:52;;;;;;;16.63;7.95;;;;;;;-0.99;82.92;100326.72;5111848;28;20023;-27
2024/01/09 08:22:18;;;;;;;16.88;8.63;;;;;;;-1.07;82.29;100336.91;5111616;28;20376;-26
2024/01/09 08:24:43;;;;;;;16.80;7.70;;;;;;;-1.32;82.60;100319.59;5111984;28;20110;-27
2024/01/09 08:27:09;;;;;;;18.65;8.73;;;;;;;-1.19;81.95;100333.44;5111794;28;20070;-28
2024/01/09 08:29:34;;;;;;;18.55;7.90;;;;;;;-1.03;82.08;100343.59;5111803;28;20031;-26
2024/01/09 08:32:00;;;;;;;15.38;7.50;;;;;;;-0.79;82.49;100330.44;5111615;27;20514;-26
2024/01/09 08:34:26;;;;;;;16.73;8.07;;;;;;;-0.93;81.41;100325.44;5111743;28;20030;-28
2024/01/09 08:36:51;;;;;;;14.75;7.78;;;;;;;-0.89;80.65;100331.28;5111710;28;20114;-28
2024/01/09 08:39:17;;;;;;;20.10;7.32;;;;;;;-1.14;82.66;100340.94;5111542;28;20028;-27
2024/01/09 08:41:42;;;;;;;17.40;8.80;;;;;;;-1.09;82.64;100358.88;5111771;28;20031;-27
2024/01/09 08:44:08;;;;;;;12.38;6.32;;;;;;;-1.23;81.57;100367.72;5111685;28;20055;-28
2024/01/09 08:46:34;;;;;;;17.50;8.25;;;;;;;-0.85;81.86;100377.97;5111400;28;20038;-29
2024/01/09 08:49:00;;;;;;;18.55;9.25;;;;;;;-0.62;79.96;100372.78;5110364;28;20026;-26
2024/01/09 08:51:27;;;;;;;17.40;8.80;;;;;;;-0.91;80.43;100388.88;5111814;28;20027;-28
2024/01/09 08:53:54;;;;;;;19.58;8.90;;;;;;;-0.79;80.79;100381.91;5111883;28;20197;-29
2024/01/09 08:56:20;;;;;;;19.05;9.85;;;;;;;-0.99;80.96;100372.91;5111490;28;20083;-28
2024/01/09 08:58:45;;;;;;;18.27;9.45;;;;;;;-0.97;80.53;100365.81;5111699;28;20108;-27
2024/01/09 09:01:11;;;;;;;17.80;9.98;;;;;;;-1.20;80.80;100368.34;5111211;28;20031;-28
2024/01/09 09:03:36;;;;;;;21.80;10.35;;;;;;;-1.13;81.77;100362.66;5111643;28;20420;-28
2024/01/09 09:06:02;;;;;;;22.23;10.18;;;;;;;-0.81;80.57;100371.56;5111728;28;20414;-29
2024/01/09 09:08:27;;;;;;;19.15;9.80;;;;;;;-1.08;80.29;100381.44;5111355;28;20061;-28
2024/01/09 09:10:53;;;;;;;21.23;9.68;;;;;;;-0.94;81.13;100357.72;5111093;28;20125;-29
2024/01/09 09:13:18;;;;;;;19.77;8.52;;;;;;;-0.73;79.31;100360.50;5111411;28;20343;-25
2024/01/09 09:15:44;;;;;;;19.80;8.68;;;;;;;-0.62;78.34;100368.38;5111276;28;20466;-27
2024/01/09 09:18:10;;;;;;;17.42;8.60;;;;;;;-1.11;79.67;100363.38;5111296;28;20031;-26
2024/01/09 09:20:36;;;;;;;16.52;8.10;;;;;;;-0.84;77.99;100374.41;5111262;28;20016;-28
2024/01/09 09:23:01;;;;;;;15.15;7.28;;;;;;;-1.21;79.87;100366.66;5111112;28;20030;-27
2024/01/09 09:25:26;;;;;;;19.75;8.70;;;;;;;-1.12;78.91;100366.91;5110691;28;20388;-27
2024/01/09 09:27:53;;;;;;;17.33;8.23;;;;;;;-1.05;78.09;100357.69;5111299;28;20076;-27
2024/01/09 09:30:18;;;;;;;15.90;7.50;;;;;;;-1.08;78.62;100358.75;5110688;28;20019;-27
2024/01/09 09:32:44;;;;;;;13.82;7.88;;;;;;;-0.94;77.17;100359.53;5110790;28;20023;-26
2024/01/09 09:35:09;;;;;;;16.92;8.20;;;;;;;-0.70;77.00;100365.53;5101780;28;20024;-27
2024/01/09 09:37:35;;;;;;;12.70;6.18;;;;;;;-1.12;79.04;100364.31;5099373;28;20518;-26
2024/01/09 09:40:01;;;;;;;13.48;7.15;;;;;;;-0.88;78.08;100378.19;5106820;28;20027;-27
2024/01/09 09:42:30;;;;;;;16.33;7.35;;;;;;;-1.03;77.87;100364.50;5113330;28;20463;-27
2024/01/09 09:45:00;;;;;;;15.57;7.68;;;;;;;-0.99;79.66;100368.53;5114706;28;20023;-28
2024/01/09 09:47:26;;;;;;;14.90;7.53;;;;;;;-0.95;79.33;100368.28;5115074;28;20039;-31
2024/01/09 09:49:53;;;;;;;18.38;8.70;;;;;;;-1.02;79.11;100360.91;5114629;28;20448;-27
2024/01/09 09:52:21;;;;;;;16.80;8.23;;;;;;;-1.17;79.71;100372.50;5114732;28;20020;-27
2024/01/09 09:54:46;;;;;;;14.50;7.93;;;;;;;-0.84;79.93;100379.63;5113533;28;20590;-26
2024/01/09 09:57:12;;;;;;;15.88;7.85;;;;;;;-0.88;79.71;100379.97;5113758;28;20114;-27
2024/01/09 09:59:37;;;;;;;14.38;7.00;;;;;;;-0.96;79.25;100375.31;5114207;28;20100;-27
2024/01/09 10:02:06;;;;;;;10.23;5.68;;;;;;;-1.42;77.56;100386.50;5114626;28;20024;-28
2024/01/09 10:04:48;;;;;;;14.05;6.80;;;;;;;-1.72;78.52;100373.88;5114264;28;20031;-26
2024/01/09 10:07:20;;;;;;;16.00;8.05;;;;;;;-1.16;77.92;100383.78;5113866;28;20019;-26
2024/01/09 10:09:51;;;;;;;14.77;8.18;;;;;;;-1.00;77.06;100377.31;5114235;28;20507;-28
2024/01/09 10:12:19;;;;;;;18.25;8.23;;;;;;;-0.93;76.96;100375.09;5114170;28;20035;-26
2024/01/09 10:15:05;;;;;;;17.77;8.30;;;;;;;-0.71;75.80;100374.31;5114311;28;20019;-28
2024/01/09 10:17:30;;;;;;;15.82;7.15;;;;;;;-1.32;77.97;100392.72;5114174;28;20040;-27
2024/01/09 10:19:55;;;;;;;16.88;8.55;;;;;;;-1.26;78.85;100392.28;5114082;28;20020;-27
2024/01/09 10:22:21;;;;;;;18.70;7.97;;;;;;;-1.35;78.91;100390.34;5113939;28;20027;-28
2024/01/09 10:24:46;;;;;;;16.90;9.13;;;;;;;-1.48;78.82;100377.34;5114217;28;20027;-28
2024/01/09 10:27:12;;;;;;;16.95;7.72;;;;;;;-1.37;79.85;100387.03;5113780;28;20164;-27
2024/01/09 10:29:44;;;;;;;18.05;8.15;;;;;;;-1.32;79.62;100389.28;5113883;28;20026;-26
2024/01/09 10:32:13;;;;;;;17.00;8.15;;;;;;;-1.63;79.24;100386.28;5113863;28;20055;-27
2024/01/09 10:34:39;;;;;;;18.38;8.48;;;;;;;-1.44;78.34;100378.78;5113962;28;20102;-28
2024/01/09 10:37:08;;;;;;;18.13;8.45;;;;;;;-1.39;78.22;100391.50;5114078;28;20138;-28
2024/01/09 10:39:34;;;;;;;15.52;8.45;;;;;;;-1.48;77.94;100390.41;5113904;28;20031;-30
2024/01/09 10:42:10;;;;;;;15.60;7.13;;;;;;;-1.63;77.54;100386.28;5113976;28;20031;-27
2024/01/09 10:44:38;;;;;;;15.02;6.97;;;;;;;-1.70;77.85;100387.66;5113463;28;20633;-28
2024/01/09 10:47:04;;;;;;;20.92;9.15;;;;;;;-1.41;78.29;100388.16;5113777;27;20085;-26
2024/01/09 10:49:31;;;;;;;17.33;8.30;;;;;;;-1.72;79.38;100389.53;5113155;28;20087;-27
2024/01/09 10:52:00;;;;;;;16.35;8.07;;;;;;;-1.55;79.29;100401.38;5112322;28;20027;-27
2024/01/09 10:54:25;;;;;;;16.58;7.82;;;;;;;-1.66;79.48;100382.09;5113230;28;20026;-29
2024/01/09 10:56:53;;;;;;;18.50;8.50;;;;;;;-1.62;79.31;100403.59;5113536;28;20019;-28
2024/01/09 10:59:19;;;;;;;16.45;8.13;;;;;;;-1.50;78.16;100414.97;5113394;28;20015;-29
2024/01/09 11:01:45;;;;;;;14.35;6.80;;;;;;;-1.70;76.12;100388.47;5113346;28;20026;-29
2024/01/09 11:04:10;;;;;;;14.93;8.00;;;;;;;-1.54;76.94;100411.72;5113125;28;20384;-31
2024/01/09 11:06:36;;;;;;;16.98;7.90;;;;;;;-1.25;76.80;100406.19;5113412;28;20084;-28
2024/01/09 11:09:04;;;;;;;18.25;8.27;;;;;;;-1.28;77.31;100407.22;5113413;28;20024;-27
2024/01/09 11:11:33;;;;;;;17.73;8.38;;;;;;;-1.09;75.98;100411.13;5113429;28;20106;-29
2024/01/09 11:14:04;;;;;;;17.60;8.23;;;;;;;-1.41;77.90;100419.50;5112716;28;20399;-28